Time;durP1;ratioP1;P1;durP2;ratioP2;P2;SDS_P1;SDS_P2;PMS_P1;PMS_P2;Temp;Humidity;BMP_temperature;BMP_pressure;BME280_temperature;BME280_humidity;BME280_pressure;Samples;Min_cycle;Max_cycle;Signal;HPM_P1;HPM_P2
2021/03/13 00:02:00;;;;;;;11.23;3.20;;;;;;;;;;6210976;23;20211;-89
2021/03/13 00:05:05;;;;;;;12.83;3.57;;;;;;;;;;6225739;23;20229;-89
2021/03/13 00:08:10;;;;;;;10.03;3.10;;;;;;;;;;6226170;23;20820;-88
2021/03/13 00:11:15;;;;;;;7.77;2.80;;;;;;;;;;6224212;23;20175;-89
2021/03/13 00:14:20;;;;;;;6.87;2.80;;;;;;;;;;6225876;23;20208;-88
2021/03/13 00:17:25;;;;;;;7.60;2.50;;;;;;;;;;6225273;23;20195;-89
2021/03/13 00:20:30;;;;;;;11.47;3.20;;;;;;;;;;6227557;22;20198;-90
2021/03/13 00:23:35;;;;;;;12.23;4.17;;;;;;;;;;6227576;23;20247;-90
2021/03/13 00:26:39;;;;;;;8.87;3.00;;;;;;;;;;6227981;23;20175;-90
2021/03/13 00:29:44;;;;;;;10.73;2.90;;;;;;;;;;6224871;23;20198;-91
2021/03/13 00:32:49;;;;;;;12.37;4.00;;;;;;;;;;6227677;23;20171;-90
2021/03/13 00:35:54;;;;;;;14.93;4.00;;;;;;;;;;6235266;23;20171;-90
2021/03/13 00:38:59;;;;;;;13.10;4.07;;;;;;;;;;6228155;22;20163;-89
2021/03/13 00:42:05;;;;;;;7.77;3.63;;;;;;;;;;6227205;23;20619;-88
2021/03/13 00:45:12;;;;;;;11.67;3.80;;;;;;;;;;6224810;22;20491;-89
2021/03/13 00:48:17;;;;;;;12.13;4.13;;;;;;;;;;6224700;23;20215;-89
2021/03/13 00:51:21;;;;;;;11.73;4.00;;;;;;;;;;6225822;23;20199;-89
2021/03/13 00:54:26;;;;;;;12.57;4.30;;;;;;;;;;6225764;23;20546;-89
2021/03/13 00:57:31;;;;;;;9.83;3.97;;;;;;;;;;6224210;23;20666;-90
2021/03/13 01:00:38;;;;;;;11.03;3.57;;;;;;;;;;6226419;23;20194;-89
2021/03/13 01:03:43;;;;;;;10.13;3.83;;;;;;;;;;6225711;23;20171;-89
2021/03/13 01:06:50;;;;;;;9.27;3.43;;;;;;;;;;6224997;22;20227;-89
2021/03/13 01:09:55;;;;;;;12.47;3.87;;;;;;;;;;6225648;23;20172;-91
2021/03/13 01:13:00;;;;;;;10.83;3.70;;;;;;;;;;6224817;23;20232;-90
2021/03/13 01:16:07;;;;;;;10.23;3.43;;;;;;;;;;6225758;23;20287;-89
2021/03/13 01:19:12;;;;;;;9.50;3.33;;;;;;;;;;6224786;23;20163;-90
2021/03/13 01:22:18;;;;;;;9.60;3.50;;;;;;;;;;6223637;23;20172;-89
2021/03/13 01:25:23;;;;;;;9.33;3.73;;;;;;;;;;6224165;23;20680;-89
2021/03/13 01:28:27;;;;;;;8.67;3.30;;;;;;;;;;6226833;23;20174;-90
2021/03/13 01:31:33;;;;;;;12.60;3.03;;;;;;;;;;6225858;23;20162;-89
2021/03/13 01:34:38;;;;;;;9.10;2.83;;;;;;;;;;6228601;22;20167;-90
2021/03/13 01:37:50;;;;;;;8.80;3.13;;;;;;;;;;6226827;23;20175;-89
2021/03/13 01:40:55;;;;;;;6.63;2.47;;;;;;;;;;6223272;23;20182;-88
2021/03/13 01:44:00;;;;;;;6.17;2.70;;;;;;;;;;6223939;22;20192;-89
2021/03/13 01:47:17;;;;;;;6.10;2.43;;;;;;;;;;6221942;23;20543;-88
2021/03/13 01:50:22;;;;;;;8.70;3.10;;;;;;;;;;6223451;23;20210;-89
2021/03/13 01:53:27;;;;;;;8.70;2.80;;;;;;;;;;6225531;23;20174;-90
2021/03/13 01:56:34;;;;;;;12.90;3.23;;;;;;;;;;6223715;23;20174;-89
2021/03/13 01:59:40;;;;;;;6.87;2.40;;;;;;;;;;6225343;23;20194;-89
2021/03/13 02:02:46;;;;;;;9.07;3.13;;;;;;;;;;6224016;23;20194;-89
2021/03/13 02:05:58;;;;;;;9.03;2.80;;;;;;;;;;6223745;23;20220;-90
2021/03/13 02:09:04;;;;;;;8.23;2.77;;;;;;;;;;6224276;23;20179;-89
2021/03/13 02:12:17;;;;;;;5.40;2.80;;;;;;;;;;6224700;22;20307;-89
2021/03/13 02:15:25;;;;;;;6.80;2.70;;;;;;;;;;6224127;22;20215;-88
2021/03/13 02:18:36;;;;;;;9.00;2.70;;;;;;;;;;6224960;23;20175;-87
2021/03/13 02:21:42;;;;;;;6.90;2.97;;;;;;;;;;6227999;23;20171;-90
2021/03/13 02:24:59;;;;;;;7.67;2.90;;;;;;;;;;6224716;23;20171;-91
2021/03/13 02:28:08;;;;;;;7.37;2.90;;;;;;;;;;6224143;23;20539;-90
2021/03/13 02:31:14;;;;;;;7.93;2.83;;;;;;;;;;6224954;23;20182;-88
2021/03/13 02:34:20;;;;;;;7.40;2.23;;;;;;;;;;6224852;23;20171;-91
2021/03/13 02:37:30;;;;;;;6.90;3.10;;;;;;;;;;6225049;23;20171;-89
2021/03/13 02:40:37;;;;;;;9.57;2.90;;;;;;;;;;6222652;23;20219;-90
2021/03/13 02:43:45;;;;;;;7.70;2.80;;;;;;;;;;6224185;23;20175;-90
2021/03/13 02:46:51;;;;;;;6.63;2.50;;;;;;;;;;6223291;23;20259;-89
2021/03/13 02:50:01;;;;;;;7.67;2.60;;;;;;;;;;6223672;23;20219;-89
2021/03/13 02:53:13;;;;;;;6.93;1.83;;;;;;;;;;6225673;23;20251;-90
2021/03/13 02:56:20;;;;;;;4.97;1.40;;;;;;;;;;6224290;23;20549;-90
2021/03/13 02:59:25;;;;;;;4.40;1.30;;;;;;;;;;6222852;23;20198;-89
2021/03/13 03:02:30;;;;;;;4.27;1.47;;;;;;;;;;6223298;22;20694;-90
2021/03/13 03:05:37;;;;;;;1.93;1.13;;;;;;;;;;6224459;23;20199;-90
2021/03/13 03:08:43;;;;;;;5.43;1.43;;;;;;;;;;6224799;23;20171;-89
2021/03/13 03:11:49;;;;;;;4.13;1.40;;;;;;;;;;6223403;23;20622;-90
2021/03/13 03:14:56;;;;;;;3.97;1.40;;;;;;;;;;6223152;23;20252;-89
2021/03/13 03:18:04;;;;;;;2.60;1.20;;;;;;;;;;6224587;23;20214;-90
2021/03/13 03:21:09;;;;;;;3.47;1.17;;;;;;;;;;6222422;23;20195;-89
2021/03/13 03:24:15;;;;;;;4.10;1.20;;;;;;;;;;6224450;23;20171;-89
2021/03/13 03:27:19;;;;;;;3.53;1.10;;;;;;;;;;6223699;23;20170;-90
2021/03/13 03:30:28;;;;;;;4.07;1.17;;;;;;;;;;6222788;22;20183;-89
2021/03/13 03:33:33;;;;;;;3.00;1.00;;;;;;;;;;6222855;23;20270;-90
2021/03/13 03:36:43;;;;;;;3.37;1.20;;;;;;;;;;6222847;23;20167;-89
2021/03/13 03:39:48;;;;;;;4.90;1.03;;;;;;;;;;6222436;23;20195;-90
2021/03/13 03:42:59;;;;;;;5.53;1.10;;;;;;;;;;6223331;23;20183;-90
2021/03/13 03:46:04;;;;;;;6.90;1.40;;;;;;;;;;6222625;23;20175;-90
2021/03/13 03:49:12;;;;;;;3.80;0.83;;;;;;;;;;6222545;23;20207;-90
2021/03/13 03:52:24;;;;;;;3.80;1.27;;;;;;;;;;6224029;23;20167;-89
2021/03/13 03:55:30;;;;;;;3.60;1.20;;;;;;;;;;6224652;23;20171;-90
2021/03/13 03:58:36;;;;;;;2.50;1.30;;;;;;;;;;6223441;23;20769;-89
2021/03/13 04:01:44;;;;;;;5.43;1.17;;;;;;;;;;6223173;23;20191;-91
2021/03/13 04:04:50;;;;;;;6.43;1.27;;;;;;;;;;6223824;23;20286;-89
2021/03/13 04:07:55;;;;;;;5.37;1.20;;;;;;;;;;6206314;23;20175;-89
2021/03/13 04:11:00;;;;;;;6.10;1.30;;;;;;;;;;6223940;23;20167;-89
2021/03/13 04:14:05;;;;;;;3.43;1.40;;;;;;;;;;6225732;23;20162;-89
2021/03/13 04:17:09;;;;;;;2.07;1.10;;;;;;;;;;6205425;23;20187;-89
2021/03/13 04:20:16;;;;;;;3.27;1.30;;;;;;;;;;6205894;23;20198;-91
2021/03/13 04:23:22;;;;;;;7.67;1.20;;;;;;;;;;6223611;23;20158;-90
2021/03/13 04:26:27;;;;;;;4.70;2.00;;;;;;;;;;6206836;23;20232;-90
2021/03/13 04:29:31;;;;;;;6.27;1.23;;;;;;;;;;6224668;23;20214;-90
2021/03/13 04:32:36;;;;;;;12.93;3.63;;;;;;;;;;6206899;23;20202;-89
2021/03/13 04:35:42;;;;;;;7.10;1.20;;;;;;;;;;6223742;23;20210;-90
2021/03/13 04:38:47;;;;;;;3.73;1.20;;;;;;;;;;6223352;23;20171;-91
2021/03/13 04:41:53;;;;;;;7.80;1.40;;;;;;;;;;6223146;23;20183;-88
2021/03/13 04:44:58;;;;;;;2.53;1.20;;;;;;;;;;6205296;23;20195;-89
2021/03/13 04:48:02;;;;;;;3.57;1.10;;;;;;;;;;6221697;23;20190;-89
2021/03/13 04:51:08;;;;;;;1.70;0.97;;;;;;;;;;6222007;23;20166;-91
2021/03/13 04:54:13;;;;;;;3.20;0.97;;;;;;;;;;6222792;23;20191;-89
2021/03/13 04:57:19;;;;;;;4.03;1.10;;;;;;;;;;6204945;23;20155;-89
2021/03/13 05:00:24;;;;;;;3.83;0.93;;;;;;;;;;6223900;23;20198;-89
2021/03/13 05:03:29;;;;;;;4.17;1.30;;;;;;;;;;6204662;23;20163;-89
2021/03/13 05:06:35;;;;;;;5.63;1.30;;;;;;;;;;6222663;23;20637;-89
2021/03/13 05:09:39;;;;;;;2.13;1.00;;;;;;;;;;6223112;23;20198;-89
2021/03/13 05:12:44;;;;;;;5.13;1.30;;;;;;;;;;6206053;23;20175;-89
2021/03/13 05:15:48;;;;;;;1.60;1.10;;;;;;;;;;6223063;23;20544;-89
2021/03/13 05:18:53;;;;;;;4.97;1.20;;;;;;;;;;6207527;23;20224;-89
2021/03/13 05:21:58;;;;;;;5.77;1.20;;;;;;;;;;6205270;23;20170;-89
2021/03/13 05:25:03;;;;;;;3.43;1.10;;;;;;;;;;6205581;23;20168;-90
2021/03/13 05:28:08;;;;;;;9.30;1.87;;;;;;;;;;6205701;23;20175;-89
2021/03/13 05:31:12;;;;;;;7.13;1.33;;;;;;;;;;6221836;23;20170;-89
2021/03/13 05:34:17;;;;;;;7.43;1.20;;;;;;;;;;6222425;23;20190;-89
2021/03/13 05:37:23;;;;;;;7.10;1.50;;;;;;;;;;6205612;23;20236;-89
2021/03/13 05:40:27;;;;;;;7.40;1.77;;;;;;;;;;6222591;23;20234;-89
2021/03/13 05:43:34;;;;;;;3.93;1.20;;;;;;;;;;6224651;23;20557;-90
2021/03/13 05:46:39;;;;;;;9.37;1.63;;;;;;;;;;6224248;23;20240;-89
2021/03/13 05:49:45;;;;;;;4.50;1.40;;;;;;;;;;6224329;23;20195;-90
2021/03/13 05:52:55;;;;;;;8.37;1.60;;;;;;;;;;6225609;23;20155;-89
2021/03/13 05:56:00;;;;;;;6.87;1.50;;;;;;;;;;6223574;23;20187;-89
2021/03/13 05:59:06;;;;;;;4.73;1.50;;;;;;;;;;6224519;23;20298;-89
2021/03/13 06:02:11;;;;;;;4.77;1.50;;;;;;;;;;6226372;23;20234;-89
2021/03/13 06:05:16;;;;;;;6.63;1.80;;;;;;;;;;6222484;23;20175;-89
2021/03/13 06:08:22;;;;;;;7.13;1.80;;;;;;;;;;6223828;23;20218;-89
2021/03/13 06:11:26;;;;;;;6.07;2.00;;;;;;;;;;6223752;23;20178;-90
2021/03/13 06:14:31;;;;;;;6.50;1.83;;;;;;;;;;6224914;23;20253;-90
2021/03/13 06:17:55;;;;;;;11.83;1.70;;;;;;;;;;6223770;23;20516;-89
2021/03/13 06:20:59;;;;;;;10.37;1.70;;;;;;;;;;6222904;23;20191;-91
2021/03/13 06:24:15;;;;;;;5.70;2.10;;;;;;;;;;6221891;23;20244;-90
2021/03/13 06:27:19;;;;;;;10.57;2.30;;;;;;;;;;6224430;23;20168;-89
2021/03/13 06:30:27;;;;;;;6.73;2.07;;;;;;;;;;6225078;23;20167;-89
2021/03/13 06:33:32;;;;;;;6.07;2.27;;;;;;;;;;6222196;23;20159;-91
2021/03/13 06:36:36;;;;;;;5.33;1.63;;;;;;;;;;6222830;23;20199;-90
2021/03/13 06:39:42;;;;;;;4.97;1.97;;;;;;;;;;6226134;23;20236;-88
2021/03/13 06:42:46;;;;;;;8.80;2.17;;;;;;;;;;6223742;23;20171;-90
2021/03/13 06:45:58;;;;;;;10.67;1.97;;;;;;;;;;6223815;23;20554;-90
2021/03/13 06:49:02;;;;;;;7.93;2.20;;;;;;;;;;6222520;23;20244;-90
2021/03/13 06:52:07;;;;;;;4.07;2.03;;;;;;;;;;6222611;23;20546;-90
2021/03/13 06:55:20;;;;;;;4.00;1.70;;;;;;;;;;6225170;23;20199;-89
2021/03/13 06:58:31;;;;;;;7.63;2.20;;;;;;;;;;6224657;23;20190;-90
2021/03/13 07:01:36;;;;;;;5.27;2.17;;;;;;;;;;6223721;23;20230;-89
2021/03/13 07:04:42;;;;;;;5.40;2.20;;;;;;;;;;6205117;23;20183;-90
2021/03/13 07:07:47;;;;;;;8.17;2.07;;;;;;;;;;6223981;23;20171;-88
2021/03/13 07:10:52;;;;;;;7.57;2.43;;;;;;;;;;6223714;23;20167;-89
2021/03/13 07:13:57;;;;;;;8.40;2.73;;;;;;;;;;6222907;23;20219;-89
2021/03/13 07:17:02;;;;;;;6.30;2.23;;;;;;;;;;6225854;23;20219;-90
2021/03/13 07:20:07;;;;;;;8.07;2.43;;;;;;;;;;6223705;23;20271;-90
2021/03/13 07:23:15;;;;;;;5.93;2.33;;;;;;;;;;6204621;23;20247;-89
2021/03/13 07:26:21;;;;;;;9.63;2.07;;;;;;;;;;6223058;23;20170;-91
2021/03/13 07:29:26;;;;;;;8.40;1.90;;;;;;;;;;6206913;23;20174;-90
2021/03/13 07:32:31;;;;;;;8.97;3.90;;;;;;;;;;6224894;23;20195;-90
2021/03/13 07:35:37;;;;;;;7.13;2.50;;;;;;;;;;6224926;23;20222;-89
2021/03/13 07:38:42;;;;;;;5.23;1.90;;;;;;;;;;6223814;23;20618;-89
2021/03/13 07:41:57;;;;;;;7.77;2.00;;;;;;;;;;6223794;23;20194;-90
2021/03/13 07:45:02;;;;;;;5.63;1.80;;;;;;;;;;6224324;23;20195;-89
2021/03/13 07:48:09;;;;;;;6.03;1.60;;;;;;;;;;6208142;23;20171;-89
2021/03/13 07:51:14;;;;;;;5.20;1.60;;;;;;;;;;6225274;23;20222;-90
2021/03/13 07:54:19;;;;;;;4.23;0.90;;;;;;;;;;6224979;23;20199;-90
2021/03/13 07:57:24;;;;;;;3.65;1.00;;;;;;;;;;6208195;23;20183;-89
2021/03/13 08:00:41;;;;;;;3.17;1.10;;;;;;;;;;6224571;23;20199;-90
2021/03/13 08:03:48;;;;;;;4.05;1.00;;;;;;;;;;6207129;23;20167;-90
2021/03/13 08:06:59;;;;;;;3.05;0.80;;;;;;;;;;6208581;23;20174;-90
2021/03/13 08:10:04;;;;;;;3.28;1.17;;;;;;;;;;6225555;23;20170;-90
2021/03/13 08:13:10;;;;;;;2.92;1.05;;;;;;;;;;6227739;22;20167;-90
2021/03/13 08:16:18;;;;;;;6.25;1.05;;;;;;;;;;6210427;23;20266;-90
2021/03/13 08:19:27;;;;;;;4.55;1.02;;;;;;;;;;6208366;23;20561;-89
2021/03/13 08:22:32;;;;;;;3.78;0.90;;;;;;;;;;6226970;23;20163;-89
2021/03/13 08:25:52;;;;;;;4.47;0.88;;;;;;;;;;6228188;23;20167;-90
2021/03/13 08:28:57;;;;;;;1.15;0.60;;;;;;;;;;6227433;23;20175;-90
2021/03/13 08:32:02;;;;;;;3.40;0.95;;;;;;;;;;6227196;23;20168;-90
2021/03/13 08:35:07;;;;;;;7.00;1.20;;;;;;;;;;6210123;23;20172;-89
2021/03/13 08:38:13;;;;;;;2.03;1.00;;;;;;;;;;6228504;23;20171;-89
2021/03/13 08:41:42;;;;;;;5.38;1.50;;;;;;;;;;6227124;23;20259;-90
2021/03/13 08:44:48;;;;;;;4.40;1.13;;;;;;;;;;6228072;23;20155;-92
2021/03/13 08:47:52;;;;;;;5.70;1.55;;;;;;;;;;6227053;23;20174;-91
2021/03/13 08:50:57;;;;;;;5.70;1.60;;;;;;;;;;6207671;23;20499;-89
2021/03/13 08:54:02;;;;;;;5.72;1.30;;;;;;;;;;6226506;23;20610;-89
2021/03/13 08:57:07;;;;;;;2.90;1.00;;;;;;;;;;6207429;23;20195;-90
2021/03/13 09:00:17;;;;;;;3.33;1.00;;;;;;;;;;6209149;23;20215;-90
2021/03/13 09:03:22;;;;;;;5.88;1.40;;;;;;;;;;6226680;22;20176;-90
2021/03/13 09:06:27;;;;;;;2.75;1.40;;;;;;;;;;6208315;23;20152;-90
2021/03/13 09:09:32;;;;;;;3.40;1.42;;;;;;;;;;6210011;23;20175;-90
2021/03/13 09:12:39;;;;;;;4.28;1.60;;;;;;;;;;6208812;23;20627;-90
2021/03/13 09:15:45;;;;;;;5.20;1.73;;;;;;;;;;6207688;23;20175;-89
2021/03/13 09:18:53;;;;;;;9.00;2.15;;;;;;;;;;6209852;22;20198;-89
2021/03/13 09:21:58;;;;;;;3.63;1.42;;;;;;;;;;6210099;23;20220;-90
2021/03/13 09:25:04;;;;;;;4.25;1.58;;;;;;;;;;6208552;23;20171;-89
2021/03/13 09:28:09;;;;;;;2.55;1.35;;;;;;;;;;6208804;23;20187;-90
2021/03/13 09:31:15;;;;;;;8.48;2.25;;;;;;;;;;6208932;23;20234;-90
2021/03/13 09:34:20;;;;;;;14.25;2.40;;;;;;;;;;6207645;23;20175;-90
2021/03/13 09:37:25;;;;;;;20.23;2.88;;;;;;;;;;6207348;23;20171;-90
2021/03/13 09:40:30;;;;;;;6.03;2.00;;;;;;;;;;6208549;23;20195;-90
2021/03/13 09:43:39;;;;;;;6.65;2.13;;;;;;;;;;6207619;23;20171;-90
2021/03/13 09:50:47;;;;;;;5.97;1.75;;;;;;;;;;6227023;23;20175;-90
2021/03/13 09:53:52;;;;;;;4.22;1.70;;;;;;;;;;6208943;22;20249;-89
2021/03/13 09:56:56;;;;;;;3.08;1.30;;;;;;;;;;6208753;23;20183;-90
2021/03/13 10:00:06;;;;;;;8.95;1.60;;;;;;;;;;6207127;23;20163;-88
2021/03/13 10:03:11;;;;;;;5.05;1.42;;;;;;;;;;6224656;23;20701;-89
2021/03/13 10:06:20;;;;;;;4.72;1.55;;;;;;;;;;6227055;23;20224;-89
2021/03/13 10:09:24;;;;;;;7.00;1.70;;;;;;;;;;6227534;22;20155;-91
2021/03/13 10:12:30;;;;;;;4.53;1.55;;;;;;;;;;6229270;22;20210;-90
2021/03/13 10:15:35;;;;;;;6.25;1.60;;;;;;;;;;6227040;23;20207;-90
2021/03/13 10:18:42;;;;;;;8.50;1.80;;;;;;;;;;6228432;22;20162;-89
2021/03/13 10:22:01;;;;;;;5.28;2.00;;;;;;;;;;6226131;23;20193;-90
2021/03/13 10:25:10;;;;;;;8.55;1.45;;;;;;;;;;6225427;23;20168;-89
2021/03/13 10:28:15;;;;;;;5.05;1.30;;;;;;;;;;6226511;22;20172;-90
2021/03/13 10:31:22;;;;;;;2.53;1.27;;;;;;;;;;6224313;23;20217;-91
2021/03/13 10:34:33;;;;;;;3.65;1.27;;;;;;;;;;6225344;23;20249;-89
2021/03/13 10:37:40;;;;;;;3.95;1.30;;;;;;;;;;6224866;23;20222;-90
2021/03/13 10:40:47;;;;;;;3.38;1.13;;;;;;;;;;6225961;23;20183;-89
2021/03/13 10:43:52;;;;;;;3.55;1.75;;;;;;;;;;6225028;23;20446;-90
2021/03/13 10:46:59;;;;;;;4.57;1.35;;;;;;;;;;6226202;23;20236;-90
2021/03/13 10:50:04;;;;;;;2.88;1.20;;;;;;;;;;6226499;23;20175;-91
2021/03/13 10:53:27;;;;;;;3.58;1.60;;;;;;;;;;6225851;22;20162;-92
2021/03/13 10:56:40;;;;;;;9.75;1.80;;;;;;;;;;6224888;23;20168;-90
2021/03/13 10:59:45;;;;;;;4.03;1.10;;;;;;;;;;6225847;23;20168;-89
2021/03/13 11:02:50;;;;;;;2.90;1.10;;;;;;;;;;6224338;22;20195;-89
2021/03/13 11:05:54;;;;;;;7.88;1.48;;;;;;;;;;6225198;22;20218;-90
2021/03/13 11:08:59;;;;;;;3.47;1.02;;;;;;;;;;6225674;23;20175;-91
2021/03/13 11:12:06;;;;;;;4.10;1.90;;;;;;;;;;6225157;23;20175;-90
2021/03/13 11:15:11;;;;;;;3.28;1.25;;;;;;;;;;6225471;23;20171;-92
2021/03/13 11:18:16;;;;;;;4.45;1.27;;;;;;;;;;6226717;23;20163;-92
2021/03/13 11:21:21;;;;;;;7.35;2.40;;;;;;;;;;6226621;22;20526;-92
2021/03/13 11:24:25;;;;;;;3.97;1.40;;;;;;;;;;6227883;23;20221;-90
2021/03/13 11:27:31;;;;;;;3.95;1.00;;;;;;;;;;6225932;23;20249;-88
2021/03/13 11:30:35;;;;;;;4.28;1.10;;;;;;;;;;6226133;23;20237;-88
2021/03/13 11:33:40;;;;;;;4.28;1.00;;;;;;;;;;6226174;23;20208;-89
2021/03/13 11:36:45;;;;;;;5.28;1.17;;;;;;;;;;6227173;23;20159;-89
2021/03/13 11:39:50;;;;;;;5.90;1.20;;;;;;;;;;6224973;23;20171;-90
2021/03/13 11:42:57;;;;;;;2.63;0.95;;;;;;;;;;6226997;23;20338;-89
2021/03/13 11:46:02;;;;;;;4.55;1.05;;;;;;;;;;6226447;23;20550;-90
2021/03/13 11:49:07;;;;;;;4.60;1.08;;;;;;;;;;6225773;23;20179;-88
2021/03/13 11:52:11;;;;;;;5.07;1.10;;;;;;;;;;6226624;23;20195;-90
2021/03/13 11:55:16;;;;;;;3.05;1.00;;;;;;;;;;6226024;23;20171;-90
2021/03/13 11:58:22;;;;;;;3.13;1.00;;;;;;;;;;6226967;23;20174;-90
2021/03/13 12:01:28;;;;;;;2.45;0.80;;;;;;;;;;6225233;23;20254;-91
2021/03/13 12:04:32;;;;;;;2.65;0.80;;;;;;;;;;6225249;23;20560;-91
2021/03/13 12:07:38;;;;;;;2.92;0.90;;;;;;;;;;6209407;23;20430;-90
2021/03/13 12:10:43;;;;;;;2.90;1.15;;;;;;;;;;6229263;23;20286;-89
2021/03/13 12:13:50;;;;;;;2.22;0.90;;;;;;;;;;6228714;23;20575;-90
2021/03/13 12:16:54;;;;;;;1.08;0.70;;;;;;;;;;6230208;23;20175;-87
2021/03/13 12:19:59;;;;;;;5.40;0.70;;;;;;;;;;6211944;23;20171;-90
2021/03/13 12:23:05;;;;;;;1.60;0.77;;;;;;;;;;6226792;23;20163;-88
2021/03/13 12:26:09;;;;;;;3.00;1.10;;;;;;;;;;6228466;23;20183;-88
2021/03/13 12:29:14;;;;;;;3.40;0.90;;;;;;;;;;6226031;23;20239;-88
2021/03/13 12:32:19;;;;;;;1.35;0.77;;;;;;;;;;6228786;23;20183;-90
2021/03/13 12:35:25;;;;;;;1.65;0.98;;;;;;;;;;6228623;23;20171;-90
2021/03/13 12:38:29;;;;;;;1.98;0.90;;;;;;;;;;6227853;23;20175;-91
2021/03/13 12:41:34;;;;;;;3.80;1.00;;;;;;;;;;6211696;22;20202;-90
2021/03/13 12:44:40;;;;;;;2.53;0.90;;;;;;;;;;6211635;23;20170;-90
2021/03/13 12:47:46;;;;;;;7.05;1.00;;;;;;;;;;6228552;23;20176;-89
2021/03/13 12:50:52;;;;;;;2.75;0.90;;;;;;;;;;6210046;23;20457;-90
2021/03/13 12:53:56;;;;;;;2.95;0.90;;;;;;;;;;6210867;23;20171;-90
2021/03/13 12:57:00;;;;;;;2.47;0.80;;;;;;;;;;6226268;23;20163;-89
2021/03/13 13:00:07;;;;;;;2.00;0.70;;;;;;;;;;6226796;22;20179;-90
2021/03/13 13:03:11;;;;;;;4.03;1.00;;;;;;;;;;6243989;22;20293;-89
2021/03/13 13:06:16;;;;;;;3.15;1.10;;;;;;;;;;6226523;23;20175;-88
2021/03/13 13:09:20;;;;;;;7.72;1.70;;;;;;;;;;6228966;23;20195;-90
2021/03/13 13:12:24;;;;;;;2.05;0.98;;;;;;;;;;6225779;23;20239;-90
2021/03/13 13:15:30;;;;;;;2.40;1.00;;;;;;;;;;6226857;23;20626;-89
2021/03/13 13:18:34;;;;;;;2.35;0.80;;;;;;;;;;6226550;23;20251;-89
2021/03/13 13:21:39;;;;;;;1.15;0.70;;;;;;;;;;6227655;23;20626;-90
2021/03/13 13:24:43;;;;;;;2.50;0.70;;;;;;;;;;6229238;23;20210;-89
2021/03/13 13:27:47;;;;;;;3.38;0.75;;;;;;;;;;6228123;23;20269;-91
2021/03/13 13:30:59;;;;;;;4.70;1.95;;;;;;;;;;6227541;23;20607;-90
2021/03/13 13:34:13;;;;;;;6.35;1.63;;;;;;;;;;6230007;23;20674;-89
2021/03/13 13:37:21;;;;;;;5.97;1.95;;;;;;;;;;6230708;23;20229;-88
2021/03/13 13:40:26;;;;;;;2.42;1.00;;;;;;;;;;6229502;23;20199;-92
2021/03/13 13:43:31;;;;;;;1.40;0.75;;;;;;;;;;6228563;22;20167;-88
2021/03/13 13:46:37;;;;;;;5.57;0.90;;;;;;;;;;6227029;23;20174;-90
2021/03/13 13:49:42;;;;;;;1.83;0.80;;;;;;;;;;6226352;23;20259;-89
2021/03/13 13:52:47;;;;;;;2.15;0.70;;;;;;;;;;6227019;23;20673;-90
2021/03/13 13:55:52;;;;;;;2.20;1.05;;;;;;;;;;6228561;23;20239;-89
2021/03/13 13:58:56;;;;;;;1.95;1.00;;;;;;;;;;6228097;23;20168;-89
2021/03/13 14:02:02;;;;;;;2.72;0.88;;;;;;;;;;6229125;22;20300;-90
2021/03/13 14:05:07;;;;;;;1.80;0.80;;;;;;;;;;6229184;23;20199;-89
2021/03/13 14:08:13;;;;;;;2.70;0.85;;;;;;;;;;6226915;23;20179;-89
2021/03/13 14:11:18;;;;;;;3.90;1.55;;;;;;;;;;6228052;23;20183;-89
2021/03/13 14:14:22;;;;;;;1.23;0.65;;;;;;;;;;6228228;22;20218;-90
2021/03/13 14:17:28;;;;;;;2.47;0.77;;;;;;;;;;6229955;23;20228;-90
2021/03/13 14:20:33;;;;;;;5.78;1.00;;;;;;;;;;6230236;23;20230;-90
2021/03/13 14:23:38;;;;;;;0.95;0.60;;;;;;;;;;6230134;23;20155;-90
2021/03/13 14:26:43;;;;;;;4.78;1.20;;;;;;;;;;6226582;23;20263;-91
2021/03/13 14:29:48;;;;;;;1.65;0.80;;;;;;;;;;6227500;23;20186;-89
2021/03/13 14:32:54;;;;;;;1.60;0.70;;;;;;;;;;6228006;23;20167;-90
2021/03/13 14:36:00;;;;;;;3.10;0.90;;;;;;;;;;6209255;23;20175;-89
2021/03/13 14:39:11;;;;;;;1.70;0.88;;;;;;;;;;6226323;23;20171;-90
2021/03/13 14:42:16;;;;;;;2.92;0.80;;;;;;;;;;6226997;23;20187;-90
2021/03/13 14:45:24;;;;;;;3.38;0.90;;;;;;;;;;6226270;23;20684;-90
2021/03/13 14:48:30;;;;;;;2.28;0.80;;;;;;;;;;6228215;23;20210;-90
2021/03/13 14:51:35;;;;;;;4.47;1.00;;;;;;;;;;6229649;23;20207;-91
2021/03/13 14:54:40;;;;;;;10.02;1.00;;;;;;;;;;6231686;23;20174;-90
2021/03/13 14:57:46;;;;;;;3.53;0.80;;;;;;;;;;6232601;22;20206;-89
2021/03/13 15:00:50;;;;;;;6.22;0.80;;;;;;;;;;6227799;23;20190;-90
2021/03/13 15:03:56;;;;;;;7.53;2.88;;;;;;;;;;6229548;23;20167;-88
2021/03/13 15:07:01;;;;;;;2.28;1.10;;;;;;;;;;6228965;23;20212;-91
2021/03/13 15:10:07;;;;;;;2.83;0.85;;;;;;;;;;6229346;23;20220;-90
2021/03/13 15:13:11;;;;;;;1.70;0.90;;;;;;;;;;6209359;23;20295;-90
2021/03/13 15:16:17;;;;;;;3.25;1.00;;;;;;;;;;6228420;22;20510;-90
2021/03/13 15:19:25;;;;;;;2.08;0.90;;;;;;;;;;6228884;23;20206;-90
2021/03/13 15:22:31;;;;;;;3.67;0.95;;;;;;;;;;6228666;23;20187;-90
2021/03/13 15:25:36;;;;;;;1.42;0.65;;;;;;;;;;6229122;23;20171;-89
2021/03/13 15:28:40;;;;;;;5.57;1.02;;;;;;;;;;6228026;23;20187;-91
2021/03/13 15:31:47;;;;;;;3.63;1.50;;;;;;;;;;6226905;23;20287;-90
2021/03/13 15:34:53;;;;;;;2.22;1.00;;;;;;;;;;6225352;23;20170;-90
2021/03/13 15:38:00;;;;;;;3.53;0.90;;;;;;;;;;6227137;23;20174;-91
2021/03/13 15:41:09;;;;;;;4.25;1.20;;;;;;;;;;6224225;23;20227;-89
2021/03/13 15:44:13;;;;;;;5.65;1.00;;;;;;;;;;6227317;22;20162;-89
2021/03/13 15:47:21;;;;;;;2.30;1.02;;;;;;;;;;6223171;23;20246;-90
2021/03/13 15:50:39;;;;;;;2.92;1.38;;;;;;;;;;6228274;23;20167;-89
2021/03/13 15:53:45;;;;;;;2.70;0.90;;;;;;;;;;6210671;23;20222;-90
2021/03/13 16:00:22;;;;;;;2.90;1.30;;;;;;;;;;6208484;23;20171;-89
2021/03/13 16:03:34;;;;;;;1.05;0.60;;;;;;;;;;6210412;23;20614;-90
2021/03/13 16:06:41;;;;;;;2.35;1.13;;;;;;;;;;6228612;23;20190;-91
2021/03/13 16:09:47;;;;;;;3.65;0.80;;;;;;;;;;6226821;23;20171;-91
2021/03/13 16:12:52;;;;;;;0.93;0.70;;;;;;;;;;6227295;23;20166;-90
2021/03/13 16:15:57;;;;;;;2.78;1.05;;;;;;;;;;6227142;23;20230;-91
2021/03/13 16:19:05;;;;;;;1.27;0.70;;;;;;;;;;6228432;23;20187;-91
2021/03/13 16:22:12;;;;;;;0.85;0.70;;;;;;;;;;6208973;23;20191;-90
2021/03/13 16:25:20;;;;;;;1.40;0.70;;;;;;;;;;6225598;23;20211;-89
2021/03/13 16:28:26;;;;;;;1.02;0.70;;;;;;;;;;6226875;23;20159;-90
2021/03/13 16:31:30;;;;;;;1.58;0.63;;;;;;;;;;6225525;23;20171;-90
2021/03/13 16:34:35;;;;;;;1.63;0.80;;;;;;;;;;6228205;23;20171;-88
2021/03/13 16:37:41;;;;;;;1.67;0.60;;;;;;;;;;6226828;23;20167;-92
2021/03/13 16:40:46;;;;;;;1.67;0.70;;;;;;;;;;6227335;23;20249;-90
2021/03/13 16:44:01;;;;;;;1.88;0.65;;;;;;;;;;6225540;22;20651;-88
2021/03/13 16:47:07;;;;;;;8.32;0.63;;;;;;;;;;6224984;23;20175;-88
2021/03/13 16:50:15;;;;;;;3.40;0.47;;;;;;;;;;6210233;23;20155;-89
2021/03/13 16:53:24;;;;;;;0.60;0.40;;;;;;;;;;6227872;23;20607;-90
2021/03/13 16:56:33;;;;;;;2.72;0.50;;;;;;;;;;6210033;23;20176;-89
2021/03/13 16:59:41;;;;;;;2.47;0.50;;;;;;;;;;6227961;23;20214;-89
2021/03/13 17:02:45;;;;;;;0.93;0.55;;;;;;;;;;6238494;23;20223;-89
2021/03/13 17:05:51;;;;;;;0.70;0.50;;;;;;;;;;6228255;23;20215;-90
2021/03/13 17:08:56;;;;;;;4.32;0.57;;;;;;;;;;6227372;23;20246;-89
2021/03/13 17:12:01;;;;;;;3.35;0.80;;;;;;;;;;6226555;23;20186;-92
2021/03/13 17:15:08;;;;;;;1.13;0.70;;;;;;;;;;6227263;23;20155;-90
2021/03/13 17:18:13;;;;;;;1.30;0.65;;;;;;;;;;6226489;23;20171;-89
2021/03/13 17:21:18;;;;;;;1.05;0.70;;;;;;;;;;6226396;23;20226;-91
2021/03/13 17:24:24;;;;;;;0.80;0.60;;;;;;;;;;6227413;22;20194;-89
2021/03/13 17:27:29;;;;;;;2.67;0.70;;;;;;;;;;6226796;23;20167;-91
2021/03/13 17:30:35;;;;;;;4.00;0.80;;;;;;;;;;6225113;23;20175;-90
2021/03/13 17:33:41;;;;;;;1.65;0.73;;;;;;;;;;6225682;22;20646;-89
2021/03/13 17:36:47;;;;;;;2.55;0.70;;;;;;;;;;6225709;23;20175;-89
2021/03/13 17:39:55;;;;;;;0.55;0.50;;;;;;;;;;6225705;23;20179;-89
2021/03/13 17:43:00;;;;;;;7.07;0.88;;;;;;;;;;6225848;23;20170;-88
2021/03/13 17:46:05;;;;;;;1.10;0.63;;;;;;;;;;6224529;23;20218;-88
2021/03/13 17:49:10;;;;;;;1.40;0.70;;;;;;;;;;6226103;23;20167;-89
2021/03/13 17:52:15;;;;;;;4.40;0.80;;;;;;;;;;6227302;23;20167;-87
2021/03/13 17:55:21;;;;;;;2.43;0.60;;;;;;;;;;6230078;23;20544;-90
2021/03/13 17:58:27;;;;;;;1.60;0.80;;;;;;;;;;6227435;23;20269;-90
2021/03/13 18:01:35;;;;;;;1.30;0.80;;;;;;;;;;6224939;23;20210;-87
2021/03/13 18:04:40;;;;;;;0.40;0.40;;;;;;;;;;6205764;23;20674;-88
2021/03/13 18:07:46;;;;;;;0.50;0.50;;;;;;;;;;6225601;23;20676;-89
2021/03/13 18:10:51;;;;;;;2.67;0.70;;;;;;;;;;6224171;23;20191;-89
2021/03/13 18:14:06;;;;;;;0.80;0.50;;;;;;;;;;6225535;23;20203;-88
2021/03/13 18:17:22;;;;;;;1.90;0.47;;;;;;;;;;6208737;23;20187;-88
2021/03/13 18:20:27;;;;;;;1.00;0.57;;;;;;;;;;6207609;23;20239;-87
2021/03/13 18:23:35;;;;;;;1.63;0.50;;;;;;;;;;6207305;23;20226;-89
2021/03/13 18:26:41;;;;;;;2.47;0.83;;;;;;;;;;6222820;23;20167;-89
2021/03/13 18:29:47;;;;;;;1.97;1.07;;;;;;;;;;6223722;23;20171;-88
2021/03/13 18:32:58;;;;;;;3.40;0.60;;;;;;;;;;6223563;23;20179;-88
2021/03/13 18:36:03;;;;;;;3.50;0.80;;;;;;;;;;6224880;23;20170;-89
2021/03/13 18:39:09;;;;;;;2.40;0.80;;;;;;;;;;6206779;23;20247;-89
2021/03/13 18:42:15;;;;;;;1.33;0.53;;;;;;;;;;6224662;23;20665;-88
2021/03/13 18:45:19;;;;;;;3.30;1.27;;;;;;;;;;6225134;23;20554;-89